createdAt,value
2023-05-19T00:02:26.135Z,92.90
2023-05-19T00:04:55.086Z,93.04
2023-05-19T00:07:28.999Z,93.21
2023-05-19T00:09:57.153Z,93.27
2023-05-19T00:12:25.264Z,93.44
2023-05-19T00:14:53.328Z,93.39
2023-05-19T00:17:21.552Z,93.52
2023-05-19T00:19:50.103Z,93.63
2023-05-19T00:22:17.933Z,93.74
2023-05-19T00:24:45.758Z,93.73
2023-05-19T00:27:13.732Z,94.01
2023-05-19T00:29:41.620Z,93.91
2023-05-19T00:32:10.264Z,94.02
2023-05-19T00:34:38.255Z,94.25
2023-05-19T00:37:06.245Z,94.24
2023-05-19T00:39:34.215Z,94.38
2023-05-19T00:42:02.819Z,94.48
2023-05-19T00:44:30.683Z,94.61
2023-05-19T00:46:58.788Z,94.70
2023-05-19T00:49:26.766Z,94.77
2023-05-19T00:51:55.727Z,94.94
2023-05-19T00:54:23.887Z,94.99
2023-05-19T00:56:51.928Z,95.08
2023-05-19T00:59:20.000Z,95.10
2023-05-19T01:01:49.143Z,95.22
2023-05-19T01:07:12.525Z,95.51
2023-05-19T01:09:40.869Z,95.64
2023-05-19T01:12:09.924Z,95.74
2023-05-19T01:14:37.934Z,95.84
2023-05-19T01:17:30.610Z,95.95
2023-05-19T01:20:25.995Z,96.07
2023-05-19T01:23:21.551Z,96.19
2023-05-19T01:26:09.791Z,96.32
2023-05-19T01:28:40.678Z,96.47
2023-05-19T01:31:12.060Z,96.50
2023-05-19T01:33:41.719Z,96.61
2023-05-19T01:36:10.855Z,96.93
2023-05-19T01:38:40.058Z,96.86
2023-05-19T01:41:09.703Z,97.20
2023-05-19T01:43:38.556Z,97.22
2023-05-19T01:46:08.482Z,97.38
2023-05-19T01:48:38.564Z,97.34
2023-05-19T01:51:06.794Z,97.45
2023-05-19T01:53:37.506Z,97.54
2023-05-19T01:56:07.103Z,97.68
2023-05-19T01:58:47.172Z,97.82
2023-05-19T02:01:45.841Z,97.83
2023-05-19T02:04:22.861Z,97.95
2023-05-19T02:06:56.671Z,98.12
2023-05-19T02:09:51.731Z,98.22
2023-05-19T02:12:40.791Z,98.40
2023-05-19T02:15:17.057Z,98.50
2023-05-19T02:17:51.671Z,98.53
2023-05-19T02:20:19.864Z,98.47
2023-05-19T02:22:47.971Z,98.61
2023-05-19T02:25:16.094Z,98.57
2023-05-19T02:27:44.633Z,98.75
2023-05-19T02:30:12.722Z,98.88
2023-05-19T02:32:40.731Z,99.01
2023-05-19T02:35:09.122Z,99.08
2023-05-19T02:37:38.928Z,99.34
2023-05-19T02:40:07.682Z,99.43
2023-05-19T02:42:35.667Z,99.51
2023-05-19T02:45:03.666Z,99.53
2023-05-19T02:47:31.758Z,99.68
2023-05-19T02:50:01.499Z,99.65
2023-05-19T02:52:31.789Z,99.74
2023-05-19T02:54:59.894Z,99.76
2023-05-19T02:57:29.214Z,99.90
2023-05-19T02:59:57.388Z,99.99
2023-05-19T03:02:25.376Z,99.99
2023-05-19T03:04:53.981Z,99.99
2023-05-19T03:07:25.237Z,99.99
2023-05-19T03:09:53.674Z,99.99
2023-05-19T03:12:21.885Z,99.99
2023-05-19T03:14:50.040Z,99.99
2023-05-19T03:17:18.069Z,99.99
2023-05-19T03:19:46.391Z,99.99
2023-05-19T03:22:14.523Z,99.99
2023-05-19T03:24:42.421Z,99.99
2023-05-19T03:27:12.426Z,99.99
2023-05-19T03:29:40.620Z,99.99
2023-05-19T03:32:08.797Z,99.99
2023-05-19T03:34:37.571Z,99.99
2023-05-19T03:37:06.408Z,99.99
2023-05-19T03:39:35.871Z,99.99
2023-05-19T03:42:04.249Z,99.99
2023-05-19T03:44:32.939Z,99.99
2023-05-19T03:47:01.792Z,99.99
2023-05-19T03:50:02.239Z,99.99
2023-05-19T03:52:48.942Z,99.99
2023-05-19T03:55:37.314Z,99.99
2023-05-19T03:58:05.346Z,99.99
2023-05-19T04:00:33.973Z,99.99
2023-05-19T04:03:02.576Z,99.99
2023-05-19T04:05:30.716Z,99.99
2023-05-19T04:07:58.554Z,99.99
2023-05-19T04:10:26.415Z,99.72
2023-05-19T04:12:55.912Z,99.44
2023-05-19T04:15:23.811Z,98.58
2023-05-19T04:17:51.772Z,98.06
2023-05-19T04:20:19.786Z,97.30
2023-05-19T04:22:47.686Z,96.77
2023-05-19T04:25:15.733Z,95.64
2023-05-19T04:27:43.806Z,93.88
2023-05-19T04:30:13.037Z,92.52
2023-05-19T04:32:41.489Z,91.59
2023-05-19T04:35:09.629Z,91.09
2023-05-19T04:37:39.112Z,89.12
2023-05-19T04:40:11.224Z,88.33
2023-05-19T04:42:45.837Z,85.84
2023-05-19T04:45:14.880Z,84.84
2023-05-19T04:47:48.304Z,84.21
2023-05-19T04:50:16.918Z,83.46
2023-05-19T04:52:47.910Z,82.83
2023-05-19T04:55:17.280Z,81.90
2023-05-19T04:57:47.015Z,80.77
2023-05-19T05:00:15.877Z,79.51
2023-05-19T05:02:59.796Z,78.76
2023-05-19T05:05:31.205Z,77.99
2023-05-19T05:07:59.542Z,76.56
2023-05-19T05:10:30.908Z,76.35
2023-05-19T05:13:00.901Z,76.02
2023-05-19T05:15:29.910Z,75.38
2023-05-19T05:18:00.537Z,76.04
2023-05-19T05:20:28.849Z,77.39
2023-05-19T05:22:58.174Z,76.16
2023-05-19T05:25:27.769Z,75.23
2023-05-19T05:27:55.870Z,74.76
2023-05-19T05:30:24.733Z,73.27
2023-05-19T05:32:53.710Z,73.06
2023-05-19T05:35:41.078Z,74.53
2023-05-19T05:38:11.684Z,75.73
2023-05-19T05:40:40.330Z,75.37
2023-05-19T05:43:09.371Z,73.82
2023-05-19T05:45:43.638Z,73.84
2023-05-19T05:48:11.942Z,73.56
2023-05-19T05:50:40.868Z,72.70
2023-05-19T05:53:12.494Z,72.88
2023-05-19T05:55:41.915Z,71.38
2023-05-19T05:58:11.352Z,73.33
2023-05-19T06:00:39.468Z,74.06
2023-05-19T06:03:07.787Z,73.32
2023-05-19T06:05:36.528Z,72.69
2023-05-19T06:08:04.927Z,72.45
2023-05-19T06:10:33.426Z,72.53
2023-05-19T06:13:01.696Z,70.57
2023-05-19T06:15:29.681Z,70.18
2023-05-19T06:18:08.665Z,71.60
2023-05-19T06:20:36.593Z,72.43
2023-05-19T06:23:04.712Z,72.78
2023-05-19T06:25:33.129Z,70.48
2023-05-19T06:28:02.091Z,71.25
2023-05-19T06:30:30.085Z,69.18
2023-05-19T06:33:09.914Z,67.87
2023-05-19T06:35:50.639Z,66.69
2023-05-19T06:38:18.724Z,66.94
2023-05-19T06:40:49.660Z,64.38
2023-05-19T06:43:18.162Z,63.26
2023-05-19T06:45:54.939Z,64.11
2023-05-19T06:48:24.330Z,62.11
2023-05-19T06:50:52.317Z,62.62
2023-05-19T06:53:21.400Z,63.36
2023-05-19T06:55:58.704Z,61.54
2023-05-19T06:58:29.773Z,62.32
2023-05-19T07:00:58.525Z,62.38
2023-05-19T07:03:31.267Z,63.01
2023-05-19T07:06:00.301Z,62.91
2023-05-19T07:08:31.238Z,61.32
2023-05-19T07:11:02.180Z,61.95
2023-05-19T07:13:30.257Z,60.26
2023-05-19T07:15:58.453Z,60.63
2023-05-19T07:18:31.937Z,60.94
2023-05-19T07:21:00.260Z,61.32
2023-05-19T07:23:28.819Z,62.48
2023-05-19T07:25:57.584Z,64.55
2023-05-19T07:28:26.106Z,63.23
2023-05-19T07:30:54.652Z,61.05
2023-05-19T07:33:22.697Z,58.10
2023-05-19T07:35:50.649Z,57.08
2023-05-19T07:38:18.747Z,57.30
2023-05-19T07:40:46.718Z,56.95
2023-05-19T07:43:14.707Z,55.50
2023-05-19T07:45:42.775Z,55.47
2023-05-19T07:48:10.978Z,55.03
2023-05-19T07:50:39.176Z,54.17
2023-05-19T07:53:07.108Z,53.94
2023-05-19T07:55:35.056Z,53.23
2023-05-19T07:58:03.319Z,53.08
2023-05-19T08:00:31.620Z,53.73
2023-05-19T08:03:02.281Z,53.87
2023-05-19T08:05:30.842Z,53.10
2023-05-19T08:07:58.946Z,53.84
2023-05-19T08:10:27.197Z,55.43
2023-05-19T08:12:55.127Z,57.37
2023-05-19T08:15:26.584Z,57.04
2023-05-19T08:17:54.611Z,55.28
2023-05-19T08:20:24.397Z,54.32
2023-05-19T08:22:52.827Z,55.05
2023-05-19T08:25:21.125Z,53.03
2023-05-19T08:27:49.149Z,53.60
2023-05-19T08:30:17.537Z,53.77
2023-05-19T08:32:45.912Z,53.88
2023-05-19T08:35:14.100Z,54.48
2023-05-19T08:37:42.381Z,53.14
2023-05-19T08:40:18.642Z,51.91
2023-05-19T08:42:47.584Z,51.64
2023-05-19T08:45:16.123Z,52.34
2023-05-19T08:47:47.590Z,52.52
2023-05-19T08:50:21.551Z,53.36
2023-05-19T08:53:18.246Z,53.62
2023-05-19T08:56:00.065Z,54.14
2023-05-19T08:58:28.981Z,54.56
2023-05-19T09:00:59.216Z,54.70
2023-05-19T09:03:30.013Z,53.69
2023-05-19T09:06:01.253Z,52.27
2023-05-19T09:08:31.138Z,51.49
2023-05-19T09:11:01.005Z,51.96
2023-05-19T09:13:29.656Z,53.18
2023-05-19T09:16:18.307Z,52.31
2023-05-19T09:18:57.044Z,52.50
2023-05-19T09:21:37.063Z,50.92
2023-05-19T09:24:12.107Z,51.34
2023-05-19T09:26:42.615Z,51.81
2023-05-19T09:29:18.177Z,51.13
2023-05-19T09:34:59.296Z,50.82
2023-05-19T09:37:30.659Z,50.15
2023-05-19T09:39:59.825Z,51.07
2023-05-19T09:42:33.090Z,50.56
2023-05-19T09:45:04.378Z,51.66
2023-05-19T09:47:44.045Z,50.88
2023-05-19T09:50:15.641Z,50.94
2023-05-19T09:52:50.504Z,50.35
2023-05-19T09:55:31.894Z,50.78
2023-05-19T09:58:03.941Z,50.38
2023-05-19T10:00:34.134Z,50.27
2023-05-19T10:03:05.491Z,51.28
2023-05-19T10:05:34.459Z,52.18
2023-05-19T10:08:07.443Z,52.01
2023-05-19T10:10:40.140Z,50.53
2023-05-19T10:13:08.938Z,50.99
2023-05-19T10:15:50.063Z,50.72
2023-05-19T10:18:30.028Z,50.74
2023-05-19T10:20:59.512Z,50.17
2023-05-19T10:23:27.840Z,50.29
2023-05-19T10:25:59.843Z,51.00
2023-05-19T10:28:41.483Z,49.02
2023-05-19T10:31:16.551Z,48.75
2023-05-19T10:34:13.496Z,49.25
2023-05-19T10:36:46.537Z,49.70
2023-05-19T10:39:29.400Z,49.12
2023-05-19T10:42:12.831Z,48.74
2023-05-19T10:45:19.139Z,48.13
2023-05-19T10:47:48.000Z,49.32
2023-05-19T10:50:17.565Z,49.24
2023-05-19T10:53:00.545Z,49.90
2023-05-19T10:56:17.261Z,49.89
2023-05-19T10:58:47.184Z,48.85
2023-05-19T11:01:20.164Z,49.71
2023-05-19T11:03:57.754Z,50.13
2023-05-19T11:06:31.315Z,50.98
2023-05-19T11:09:19.772Z,49.99
2023-05-19T11:11:55.735Z,50.67
2023-05-19T11:14:27.991Z,49.08
2023-05-19T11:17:00.345Z,48.90
2023-05-19T11:19:35.227Z,49.10
2023-05-19T11:22:12.416Z,49.70
2023-05-19T11:24:52.458Z,47.76
2023-05-19T11:27:21.941Z,47.94
2023-05-19T11:29:51.924Z,48.49
2023-05-19T11:32:22.720Z,48.59
2023-05-19T11:34:51.089Z,49.51
2023-05-19T11:37:19.107Z,50.32
2023-05-19T11:39:47.833Z,49.29
2023-05-19T11:42:16.378Z,48.51
2023-05-19T11:44:47.328Z,48.62
2023-05-19T11:47:17.058Z,49.48
2023-05-19T11:49:50.255Z,48.67
2023-05-19T11:52:20.947Z,48.38
2023-05-19T11:54:51.836Z,47.54
2023-05-19T11:57:22.903Z,47.12
2023-05-19T11:59:54.630Z,47.82
2023-05-19T12:02:27.805Z,48.26
2023-05-19T12:04:56.098Z,49.43
2023-05-19T12:07:27.138Z,48.72
2023-05-19T12:09:56.784Z,48.46
2023-05-19T12:12:29.572Z,49.20
2023-05-19T12:14:57.870Z,48.81
2023-05-19T12:17:26.253Z,48.91
2023-05-19T12:19:55.174Z,49.16
2023-05-19T12:22:23.578Z,49.56
2023-05-19T12:24:51.986Z,49.55
2023-05-19T12:27:24.681Z,48.35
2023-05-19T12:29:54.763Z,48.60
2023-05-19T12:32:29.250Z,47.33
2023-05-19T12:35:03.450Z,48.00
2023-05-19T12:37:35.482Z,47.89
2023-05-19T12:40:04.858Z,48.10
2023-05-19T12:42:35.466Z,48.84
2023-05-19T12:45:04.893Z,48.15
2023-05-19T12:47:36.499Z,47.68
2023-05-19T12:50:10.364Z,49.01
2023-05-19T12:52:45.155Z,47.30
2023-05-19T12:55:14.409Z,47.75
2023-05-19T12:57:45.151Z,47.96
2023-05-19T13:00:20.865Z,48.06
2023-05-19T13:03:05.619Z,47.32
2023-05-19T13:05:43.700Z,47.32
2023-05-19T13:08:20.250Z,47.59
2023-05-19T13:10:52.229Z,46.98
2023-05-19T13:13:20.294Z,46.68
2023-05-19T13:15:49.308Z,47.69
2023-05-19T13:18:18.514Z,47.43
2023-05-19T13:20:49.325Z,47.98
2023-05-19T13:23:18.626Z,47.53
2023-05-19T13:25:46.994Z,48.61
2023-05-19T13:28:15.168Z,48.32
2023-05-19T13:30:45.227Z,48.28
2023-05-19T13:33:13.558Z,47.65
2023-05-19T13:35:42.355Z,47.51
2023-05-19T13:38:11.161Z,47.87
2023-05-19T13:40:40.531Z,46.80
2023-05-19T13:43:10.115Z,45.92
2023-05-19T13:45:39.075Z,46.19
2023-05-19T13:48:07.725Z,46.86
2023-05-19T13:50:36.765Z,46.65
2023-05-19T13:53:05.558Z,46.48
2023-05-19T13:55:34.453Z,45.94
2023-05-19T13:58:11.110Z,45.11
2023-05-19T14:00:39.847Z,44.49
2023-05-19T14:03:08.178Z,46.05
2023-05-19T14:05:37.444Z,46.64
2023-05-19T14:08:05.872Z,46.43
2023-05-19T14:10:33.997Z,46.80
2023-05-19T14:15:37.735Z,46.60
2023-05-19T14:18:06.889Z,46.85
2023-05-19T14:20:36.098Z,46.81
2023-05-19T14:23:04.323Z,47.41
2023-05-19T14:25:32.678Z,46.03
2023-05-19T14:28:00.950Z,47.01
2023-05-19T14:30:29.211Z,46.22
2023-05-19T14:32:57.455Z,45.94
2023-05-19T14:35:26.094Z,45.82
2023-05-19T14:37:54.564Z,46.78
2023-05-19T14:40:22.960Z,46.20
2023-05-19T14:42:51.251Z,45.62
2023-05-19T14:45:19.440Z,45.42
2023-05-19T14:47:48.034Z,46.31
2023-05-19T14:50:16.429Z,46.12
2023-05-19T14:52:44.442Z,47.38
2023-05-19T14:55:12.600Z,46.21
2023-05-19T14:57:40.925Z,47.06
2023-05-19T15:00:10.341Z,46.73
2023-05-19T15:02:38.668Z,44.88
2023-05-19T15:05:07.228Z,45.86
2023-05-19T15:07:35.535Z,45.06
2023-05-19T15:10:04.586Z,45.76
2023-05-19T15:12:33.314Z,46.37
2023-05-19T15:15:01.369Z,47.09
2023-05-19T15:17:29.300Z,46.27
2023-05-19T15:19:57.718Z,46.46
2023-05-19T15:22:26.366Z,46.81
2023-05-19T15:24:54.678Z,45.92
2023-05-19T15:27:23.448Z,46.66
2023-05-19T15:29:51.728Z,45.79
2023-05-19T15:32:20.420Z,46.07
2023-05-19T15:34:48.702Z,46.35
2023-05-19T15:37:16.952Z,47.16
2023-05-19T15:39:45.020Z,47.45
2023-05-19T15:42:13.565Z,45.57
2023-05-19T15:44:41.900Z,44.60
2023-05-19T15:47:10.080Z,45.79
2023-05-19T15:49:38.157Z,45.07
2023-05-19T15:52:06.638Z,44.97
2023-05-19T15:54:34.856Z,44.63
2023-05-19T15:57:03.078Z,44.93
2023-05-19T15:59:32.637Z,44.57
2023-05-19T16:02:00.901Z,44.40
2023-05-19T16:04:29.574Z,45.48
2023-05-19T16:06:58.131Z,45.62
2023-05-19T16:09:25.984Z,45.77
2023-05-19T16:11:54.016Z,46.46
2023-05-19T16:14:22.593Z,46.56
2023-05-19T16:16:51.038Z,46.60
2023-05-19T16:19:19.374Z,47.15
2023-05-19T16:21:48.086Z,47.64
2023-05-19T16:24:16.289Z,47.78
2023-05-19T16:26:44.470Z,48.41
2023-05-19T16:29:12.617Z,47.96
2023-05-19T16:31:40.956Z,48.19
2023-05-19T16:34:09.369Z,45.97
2023-05-19T16:36:37.492Z,45.21
2023-05-19T16:39:05.705Z,45.89
2023-05-19T16:41:33.632Z,46.58
2023-05-19T16:44:02.528Z,46.77
2023-05-19T16:46:31.516Z,46.56
2023-05-19T16:48:59.748Z,46.42
2023-05-19T16:51:27.733Z,46.63
2023-05-19T16:53:55.772Z,47.22
2023-05-19T16:56:23.825Z,46.16
2023-05-19T16:58:52.978Z,47.04
2023-05-19T17:01:21.661Z,48.04
2023-05-19T17:03:49.887Z,48.95
2023-05-19T17:06:19.742Z,48.97
2023-05-19T17:08:47.707Z,48.53
2023-05-19T17:11:15.862Z,48.45
2023-05-19T17:13:43.934Z,48.18
2023-05-19T17:16:12.047Z,47.27
2023-05-19T17:18:40.098Z,47.19
2023-05-19T17:21:11.126Z,47.27
2023-05-19T17:23:39.382Z,47.23
2023-05-19T17:26:07.894Z,47.32
2023-05-19T17:28:36.382Z,47.76
2023-05-19T17:31:13.157Z,48.70
2023-05-19T17:33:41.774Z,48.63
2023-05-19T17:36:10.277Z,49.38
2023-05-19T17:38:40.381Z,49.79
2023-05-19T17:41:14.195Z,50.34
2023-05-19T17:43:43.143Z,50.24
2023-05-19T17:46:12.330Z,50.32
2023-05-19T17:48:40.695Z,50.64
2023-05-19T17:51:09.293Z,50.79
2023-05-19T17:53:41.069Z,50.83
2023-05-19T17:56:12.220Z,50.53
2023-05-19T17:58:41.308Z,51.30
2023-05-19T18:01:09.972Z,51.41
2023-05-19T18:03:38.658Z,51.50
2023-05-19T18:06:08.364Z,51.81
2023-05-19T18:11:20.159Z,49.92
2023-05-19T18:13:48.492Z,49.50
2023-05-19T18:16:18.996Z,50.16
2023-05-19T18:18:50.739Z,50.88
2023-05-19T18:21:19.749Z,51.17
2023-05-19T18:23:55.617Z,51.14
2023-05-19T18:26:31.029Z,51.84
2023-05-19T18:29:05.147Z,52.00
2023-05-19T18:31:39.275Z,51.53
2023-05-19T18:34:08.480Z,52.13
2023-05-19T18:36:36.931Z,52.30
2023-05-19T18:39:05.565Z,52.17
2023-05-19T18:41:36.823Z,52.96
2023-05-19T18:44:09.692Z,53.45
2023-05-19T18:47:18.303Z,54.02
2023-05-19T18:52:23.140Z,54.40
2023-05-19T18:53:03.771Z,54.88
2023-05-19T18:55:37.084Z,55.61
2023-05-19T18:58:13.026Z,56.31
2023-05-19T19:01:19.029Z,56.56
2023-05-19T19:03:33.541Z,56.75
2023-05-19T19:06:30.464Z,56.31
2023-05-19T19:09:10.749Z,56.77
2023-05-19T19:11:54.918Z,56.56
2023-05-19T19:14:47.314Z,56.60
2023-05-19T19:17:25.990Z,56.66
2023-05-19T19:20:05.167Z,56.68
2023-05-19T19:22:50.932Z,56.92
2023-05-19T19:26:39.347Z,56.87
2023-05-19T19:28:37.895Z,57.29
2023-05-19T19:32:12.926Z,57.37
2023-05-19T19:34:35.034Z,57.71
2023-05-19T19:37:14.945Z,58.18
2023-05-19T19:40:02.834Z,58.18
2023-05-19T19:42:56.301Z,58.65
2023-05-19T19:45:32.338Z,58.94
2023-05-19T19:48:23.276Z,59.38
2023-05-19T19:53:57.100Z,59.59
2023-05-19T19:54:59.486Z,59.90
2023-05-19T19:57:56.256Z,60.52
2023-05-19T20:01:17.230Z,60.67
2023-05-19T20:04:12.964Z,61.12
2023-05-19T20:06:54.107Z,61.65
2023-05-19T20:09:54.091Z,62.22
2023-05-19T20:12:58.182Z,62.72
2023-05-19T20:15:30.398Z,62.94
2023-05-19T20:18:21.218Z,62.71
2023-05-19T20:21:37.226Z,63.33
2023-05-19T20:24:14.929Z,63.28
2023-05-19T20:27:01.265Z,63.37
2023-05-19T20:29:47.514Z,63.90
2023-05-19T20:32:29.621Z,63.82
2023-05-19T20:35:13.026Z,63.66
2023-05-19T20:37:58.685Z,63.99
2023-05-19T20:40:46.391Z,64.84
2023-05-19T20:43:25.724Z,65.67
2023-05-19T20:46:11.528Z,66.37
2023-05-19T20:49:36.286Z,67.18
2023-05-19T20:58:38.192Z,69.31
2023-05-19T21:01:18.499Z,69.87
2023-05-19T21:11:24.760Z,71.72
2023-05-19T21:13:39.358Z,72.23
2023-05-19T21:16:21.991Z,72.70
2023-05-19T21:19:33.498Z,72.95
2023-05-19T21:22:28.170Z,73.24
2023-05-19T21:25:20.430Z,73.47
2023-05-19T21:30:38.201Z,74.13
2023-05-19T21:33:12.374Z,74.38
2023-05-19T21:36:05.915Z,74.76
2023-05-19T21:41:30.951Z,75.07
2023-05-19T21:42:13.128Z,75.34
2023-05-19T21:47:35.960Z,75.54
2023-05-19T21:48:16.424Z,75.62
2023-05-19T21:51:04.694Z,75.92
2023-05-19T21:53:42.246Z,76.00
2023-05-19T21:56:30.731Z,76.01
2023-05-19T22:02:16.931Z,76.15
2023-05-19T22:04:50.375Z,76.27
2023-05-19T22:07:55.851Z,76.26
2023-05-19T22:10:54.618Z,76.30
2023-05-19T22:13:44.593Z,76.37
2023-05-19T22:19:24.988Z,76.54
2023-05-19T22:22:02.016Z,76.46
2023-05-19T22:25:11.992Z,76.43
2023-05-19T22:27:46.830Z,76.42
2023-05-19T22:30:41.054Z,76.71
2023-05-19T22:33:26.241Z,76.87
2023-05-19T22:36:14.851Z,76.86
2023-05-19T22:38:49.427Z,76.97
2023-05-19T22:41:33.518Z,77.08
2023-05-19T22:46:58.751Z,77.57
2023-05-19T22:49:44.083Z,77.61
2023-05-19T22:52:24.290Z,77.84
2023-05-19T22:55:10.817Z,78.03
2023-05-19T22:57:39.220Z,78.18
2023-05-19T23:00:08.322Z,78.27
2023-05-19T23:02:36.289Z,78.43
2023-05-19T23:05:04.487Z,78.54
2023-05-19T23:07:32.904Z,78.59
2023-05-19T23:10:13.696Z,78.76
2023-05-19T23:12:49.230Z,79.03
2023-05-19T23:15:26.746Z,79.28
2023-05-19T23:17:57.207Z,79.47
2023-05-19T23:20:25.356Z,79.76
2023-05-19T23:23:00.691Z,79.94
2023-05-19T23:25:50.953Z,80.18
2023-05-19T23:28:21.734Z,80.27
2023-05-19T23:30:54.361Z,80.51
2023-05-19T23:33:22.768Z,80.63
2023-05-19T23:35:50.948Z,80.94
2023-05-19T23:38:19.126Z,81.01
2023-05-19T23:40:49.338Z,81.15
2023-05-19T23:43:27.014Z,81.31
2023-05-19T23:45:55.550Z,81.31
2023-05-19T23:48:23.748Z,81.32
2023-05-19T23:51:02.584Z,81.45
2023-05-19T23:53:51.115Z,81.58
2023-05-19T23:56:21.415Z,81.65
2023-05-19T23:58:52.244Z,81.82
